AirNav   TITAN Aviation Fuels
 
 1654 users online  

NY40 Gentzke Aeronautical Park Airport
Holland, New York, USA

GOING TO HOLLAND?


FAA INFORMATION EFFECTIVE 09 SEPTEMBER 2021

Location

FAA Identifier: NY40
Lat/Long: 42-36-38.2200N 078-35-44.0860W
42-36.637000N 078-35.734767W
42.6106167,-78.5955794
(estimated)
Elevation: 1750 ft. / 533 m (estimated)
Variation: 10W (1985)
From city: 4 miles SW of HOLLAND, NY
Time zone: UTC -4 (UTC -5 during Standard Time)
Zip code: 14080

Airport Operations

Airport use: CLOSED INDEFINITELY
Activation date: 11/1988
Control tower: no
ARTCC: CLEVELAND CENTER
FSS: BUFFALO FLIGHT SERVICE STATION
Attendance: UNATNDD
Wind indicator: yes
Segmented circle: no

Nearby radio navigation aids

VOR radial/distance  VOR name  Freq  Var
BUFr181/19.2BUFFALO VOR/DME116.4008W
JHWr050/34.4JAMESTOWN VOR/DME114.7007W

Airport Services

Runway Information

Runway E/W

Dimensions: 2000 x 100 ft. / 610 x 30 m
Surface: turf
RUNWAY E  RUNWAY W
Traffic pattern: leftleft
Obstructions: pline50 ft. trees, 500 ft. from runway

Airport Ownership and Management from official FAA records

Ownership: Privately-owned
Owner: GLENN D. GENTZKE
10661 CRUMP RD
HOLLAND, NY 14080
Phone 716 592-2023
Manager: GLENN D. GENTZKE
10661 CRUMP RD
HOLLAND, NY 14080
Phone 716 592-2023

Airport Operational Statistics

Aircraft based on the field: 3
Single engine airplanes: 3
    

Additional Remarks

FOR CD CTC CLEVELAND ARTCC AT 440-774-0490.
(ARPT STATUS) ARPT CLSD INDEFLY.

Instrument Procedures

There are no published instrument procedures at NY40.

Some nearby airports with instrument procedures:

9G0 - Buffalo Airfield (16 nm N)
KBUF - Buffalo Niagara International Airport (21 nm N)
KOLE - Cattaraugus County-Olean Airport (24 nm SE)
9G3 - Akron Airport/Jesson Field (25 nm N)
KDKK - Chautauqua County/Dunkirk Airport (31 nm W)
 
Loc | Ops | Rwys | IFR | FBO | Links
Com | Nav | Svcs | Stats | Notes
Area around NY40 (Gentzke Aeronautical Park Airport)
 
Road maps at: MapQuest Bing Google
 
Aerial photo
No photo
 
Sectional chart

 
Airport distance calculator
Flying to Gentzke Aeronautical Park Airport? Find the distance to fly.

From to NY40

Sunrise and sunset
Times for 21-Sep-2021
 Local
(UTC-4)
 Zulu
(UTC)
Morning civil twilight06:3310:33
Sunrise07:0211:02
Sunset19:1323:13
Evening civil twilight19:4223:42

Current date and time
Zulu (UTC)  21-Sep-2021 18:59:53
Local (UTC-4)  21-Sep-2021 14:59:53
 
METAR
KBUF 
20nm N 
211854Z 20013KT 10SM FEW039 FEW110 BKN160 BKN210 BKN260 24/15 A3012 RMK AO2 SLP196 T02440150
KOLE 
25nm SE 
211855Z AUTO 18011G16KT 7SM SCT030 20/13 A3022 RMK AO2
KDKK 
31nm W 
211853Z AUTO 18008KT 10SM SCT046 24/15 A3013 RMK AO2 SLP197 T02440150
KGVQ 
32nm NE 
211756Z AUTO 20009KT 10SM CLR 22/15 A3016 RMK AO2 SLP209 T02220150 10228 20183 58006
CWPC 
33nm NW 
211800Z AUTO 19015KT 22/16 RMK AO1 PK WND 19023/1705 SLP208 T02190155 57003
KIAG 
34nm NW 
211853Z 19012KT 10SM OVC075 26/15 A3011 RMK AO2 SLP190 T02560150
KDSV 
39nm E 
211854Z AUTO 17013G25KT 10SM CLR 24/14 A3017 RMK AO2 SLP221 T02390139
TAF
KBUF 
20nm N 
211120Z 2112/2212 18012G18KT P6SM BKN120 FM211500 19016G24KT P6SM BKN100 FM212200 20010KT P6SM BKN080 FM220400 17013G20KT P6SM BKN060 FM220800 16013G19KT P6SM VCSH OVC040 FM221000 16012G18KT 6SM -SHRA OVC035
NOTAMs
Click for the latest NOTAMs
NOTAMs are issued by the DoD/FAA and will open in a separate window not controlled by AirNav.

 

 
 

Would you like to see your business listed on this page?

 If your business provides an interesting product or service to pilots, flight crews, aircraft, or users of the Gentzke Aeronautical Park Airport, you should consider listing it here.  To start the listing process, click on the button below
 
Add a business
 

Other Pages about Gentzke Aeronautical Park Airport

Update a link
 
Copyright © AirNav, LLC. All rights reserved. Privacy Policy  Contact